MSC Gina — 3FLY9 — position and weather

sailwx.info

Track history (hours):
 
Tides and Currents Weather Stations Pressure Air Temp Water Temp Dewpoint Dewpoint Depression Visibility Wind Speed Wind Dir Waves Ship Positions

MSC Gina

Last reported at 2016-May-29 21:17 UTC. Time now 2016-May-30 06:58 UTC.
Position N 13°33' W 017°49'.

Length 259 m; draft 10.9 m.

Type: Ship (hazmat cat A). MMSI: 357542000.

Date/timePositionNaut miles runAvg speedWind from/ knotsBaromVisibWave heightAir tempDewpointWater temp
2016-May-29 21:17N 13°33' W 017°49'1217.1
2016-May-29 20:33N 13°45' W 017°50'1716.7
2016-May-29 19:33N 14°01' W 017°44'1817.8
2016-May-29 18:34N 14°16' W 017°35'1717.4
2016-May-29 17:34N 14°31' W 017°26'9 9.4
2016-May-29 16:33N 14°41' W 017°25'1 0.7
2016-May-29 15:28N 14°41' W 017°26'0 0.0
2016-May-29 14:28N 14°41' W 017°26'0 0.0
2016-May-29 13:31N 14°41' W 017°26'0 0.0
2016-May-29 12:31N 14°41' W 017°26'0 0.0
2016-May-29 11:31N 14°41' W 017°26'0 0.0
2016-May-29 10:31N 14°41' W 017°26'0 0.0
2016-May-29 09:31N 14°41' W 017°26'0 0.0
2016-May-29 08:31N 14°41' W 017°26'0 0.0
2016-May-29 07:31N 14°41' W 017°26'0 0.0
2016-May-29 06:31N 14°41' W 017°26'0 0.0
2016-May-29 05:22N 14°41' W 017°26'0 0.0
2016-May-29 04:22N 14°41' W 017°26'0 0.0
2016-May-29 03:22N 14°41' W 017°26'0 0.0
2016-May-29 02:22N 14°41' W 017°26'0 0.0
2016-May-29 01:25N 14°41' W 017°26'0 0.0
2016-May-29 00:25N 14°41' W 017°26'0 0.0
2016-May-28 23:25N 14°41' W 017°26'0 0.0
2016-May-28 22:28N 14°41' W 017°26'0 0.0
2016-May-28 21:19N 14°41' W 017°26'0 0.0
2016-May-28 20:31N 14°41' W 017°26'0 0.0
2016-May-28 19:31N 14°41' W 017°26'0 0.0
2016-May-28 18:33N 14°41' W 017°26'4 4.2
2016-May-28 17:33N 14°38' W 017°22'8 8.1
2016-May-28 16:33N 14°36' W 017°31'2914.3
2016-May-28 14:33N 15°03' W 017°41'1616.0
2016-May-28 13:33N 15°19' W 017°41'1615.9
2016-May-28 12:33N 15°35' W 017°41'1615.9
2016-May-28 11:33N 15°51' W 017°40'1616.4
2016-May-28 10:33N 16°07' W 017°40'1716.5
2016-May-28 09:33N 16°24' W 017°40'68016.9
2016-May-26 17:16N 27°32' W 015°25'1318.4
2016-May-26 16:33N 27°44' W 015°18'1817.6
2016-May-26 15:33N 28°01' W 015°17'9 9.4
2016-May-26 14:33N 28°08' W 015°25'0 0.0
2016-May-26 13:22N 28°08' W 015°25'0 0.0
2016-May-26 12:25N 28°08' W 015°25'0 0.0
2016-May-26 11:25N 28°08' W 015°25'0 0.0
2016-May-26 10:28N 28°08' W 015°25'0 0.0
2016-May-26 09:28N 28°08' W 015°25'0 0.0
2016-May-26 08:28N 28°08' W 015°25'0 0.0
2016-May-26 07:31N 28°08' W 015°25'0 0.0
2016-May-26 06:31N 28°08' W 015°25'0 0.0
2016-May-26 05:31N 28°08' W 015°25'0 0.0
2016-May-26 04:31N 28°08' W 015°25'0 0.0
2016-May-26 03:31N 28°08' W 015°25'0 0.0
2016-May-26 02:31N 28°08' W 015°25'0 0.0
2016-May-26 01:31N 28°08' W 015°25'0 0.0
2016-May-26 00:22N 28°08' W 015°25'0 0.0
2016-May-25 23:22N 28°08' W 015°25'0 0.0
2016-May-25 22:25N 28°08' W 015°25'0 0.0
2016-May-25 21:25N 28°08' W 015°25'0 0.0
2016-May-25 20:25N 28°08' W 015°25'1 1.6
2016-May-25 19:33N 28°07' W 015°24'1110.7
2016-May-25 18:33N 28°14' W 015°15'1919.4
2016-May-25 17:33N 28°28' W 014°59'2019.8
2016-May-25 16:34N 28°42' W 014°44'2119.7
2016-May-25 15:31N 28°57' W 014°28'2019.3
2016-May-25 14:29N 29°12' W 014°12'5919.5
2016-May-25 11:29N 29°53' W 013°24'53719.2
2016-May-24 07:28N 35°57' W 005°34'1516.9
2016-May-24 06:33N 36°02' W 005°16'18818.1
2016-May-23 20:09N 36°55' W 001°31'1218.8
2016-May-23 19:30N 37°03' W 001°20'1818.9
2016-May-23 18:33N 37°14' W 001°03'1919.0
2016-May-23 17:33N 37°27' W 000°45'1818.5
2016-May-23 16:33N 37°40' W 000°29'2018.7
2016-May-23 15:30N 37°56' W 000°15'2118.4
2016-May-23 14:22N 38°14' W 000°01'6913.7
2016-May-23 09:18N 39°23' W 000°13'6 8.3
2016-May-23 08:34N 39°26' W 000°19'0 0.3
2016-May-23 07:31N 39°26' W 000°20'0 0.0
2016-May-23 04:31N 39°26' W 000°20'0 0.0
2016-May-23 03:31N 39°26' W 000°20'0 0.0
2016-May-23 02:31N 39°26' W 000°20'0 0.0
2016-May-23 01:31N 39°26' W 000°20'0 0.0
2016-May-23 00:31N 39°26' W 000°20'0 0.0
2016-May-22 23:31N 39°26' W 000°20'0 0.0
2016-May-22 22:31N 39°26' W 000°20'0 0.0
2016-May-22 21:31N 39°26' W 000°20'0 0.0
2016-May-22 20:31N 39°26' W 000°20'0 0.0
2016-May-22 19:31N 39°26' W 000°20'0 0.0
2016-May-22 18:31N 39°26' W 000°20'0 0.0
2016-May-22 17:31N 39°26' W 000°20'0 0.0
2016-May-22 16:31N 39°26' W 000°20'0 0.0
2016-May-22 15:31N 39°26' W 000°20'0 0.0
2016-May-22 14:28N 39°26' W 000°20'0 0.0
2016-May-22 13:31N 39°26' W 000°20'0 0.0
2016-May-22 12:31N 39°26' W 000°20'0 0.0
2016-May-22 10:31N 39°26' W 000°20'0 0.3
2016-May-22 09:31N 39°26' W 000°20'0 0.0
2016-May-22 08:31N 39°26' W 000°20'0 0.0
2016-May-22 07:31N 39°26' W 000°20'0 0.0
2016-May-22 06:31N 39°26' W 000°20'0 0.0
2016-May-22 05:31N 39°26' W 000°20'0 0.0
2016-May-22 04:31N 39°26' W 000°20'0 0.0
2016-May-22 03:31N 39°26' W 000°20'0 0.0
2016-May-22 02:31N 39°26' W 000°20'0 0.0
2016-May-22 01:28N 39°26' W 000°20'0 0.0
2016-May-22 00:31N 39°26' W 000°20'0 0.0
2016-May-21 23:31N 39°26' W 000°20'0 0.0
2016-May-21 22:31N 39°26' W 000°20'0 0.0
2016-May-21 21:31N 39°26' W 000°20'0 0.0
2016-May-21 20:31N 39°26' W 000°20'0 0.0
2016-May-21 19:28N 39°26' W 000°20'0 0.0
2016-May-21 18:31N 39°26' W 000°20'0 0.0
2016-May-21 17:31N 39°26' W 000°20'3 3.1
2016-May-21 16:33N 39°26' W 000°16'2 1.5
2016-May-21 15:15N 39°26' W 000°13'6 8.0
2016-May-21 14:33N 39°26' W 000°06'6 5.3
2016-May-21 13:22N 39°32' W 000°04'1 1.0
2016-May-21 12:33N 39°31' W 000°03'2 1.6
2016-May-21 11:33N 39°30' W 000°03'1 1.1
2016-May-21 10:33N 39°29' W 000°02'1 0.5
2016-May-21 09:29N 39°29' W 000°02'0 0.2
2016-May-21 08:33N 39°29' W 000°01'0 0.3
2016-May-21 07:34N 39°29' W 000°02'1 0.6
2016-May-21 06:33N 39°29' W 000°02'0 0.4
2016-May-21 05:34N 39°30' W 000°02'0 0.4
2016-May-21 04:34N 39°30' W 000°02'0 0.4
2016-May-21 03:32N 39°30' W 000°02'1 0.5
2016-May-21 02:20N 39°31' W 000°03'0 0.0
2016-May-20 23:33N 39°31' W 000°03'3 1.1
2016-May-20 21:14N 39°28' W 000°01'38 1.7
2016-May-19 23:32N 40°02' E 000°20'0 0.2
2016-May-19 22:33N 40°02' E 000°21'6 5.6
2016-May-19 21:33N 40°05' E 000°27'  
Track history (hours):
 
Tides and Currents Weather Stations Pressure Air Temp Water Temp Dewpoint Dewpoint Depression Visibility Wind Speed Wind Dir Waves Ship Positions

MSC Gina

Last reported at 2016-May-29 21:17 UTC. Time now 2016-May-30 06:58 UTC.
Position N 13°33' W 017°49'.

Length 259 m; draft 10.9 m.

Type: Ship (hazmat cat A). MMSI: 357542000.

Date/timePositionNaut miles runAvg speedWind from/ knotsBaromVisibWave heightAir tempDewpointWater temp
2016-May-29 21:17N 13°33' W 017°49'1217.1
2016-May-29 20:33N 13°45' W 017°50'1716.7
2016-May-29 19:33N 14°01' W 017°44'1817.8
2016-May-29 18:34N 14°16' W 017°35'1717.4
2016-May-29 17:34N 14°31' W 017°26'9 9.4
2016-May-29 16:33N 14°41' W 017°25'1 0.7
2016-May-29 15:28N 14°41' W 017°26'0 0.0
2016-May-29 14:28N 14°41' W 017°26'0 0.0
2016-May-29 13:31N 14°41' W 017°26'0 0.0
2016-May-29 12:31N 14°41' W 017°26'0 0.0
2016-May-29 11:31N 14°41' W 017°26'0 0.0
2016-May-29 10:31N 14°41' W 017°26'0 0.0
2016-May-29 09:31N 14°41' W 017°26'0 0.0
2016-May-29 08:31N 14°41' W 017°26'0 0.0
2016-May-29 07:31N 14°41' W 017°26'0 0.0
2016-May-29 06:31N 14°41' W 017°26'0 0.0
2016-May-29 05:22N 14°41' W 017°26'0 0.0
2016-May-29 04:22N 14°41' W 017°26'0 0.0
2016-May-29 03:22N 14°41' W 017°26'0 0.0
2016-May-29 02:22N 14°41' W 017°26'0 0.0
2016-May-29 01:25N 14°41' W 017°26'0 0.0
2016-May-29 00:25N 14°41' W 017°26'0 0.0
2016-May-28 23:25N 14°41' W 017°26'0 0.0
2016-May-28 22:28N 14°41' W 017°26'0 0.0
2016-May-28 21:19N 14°41' W 017°26'0 0.0
2016-May-28 20:31N 14°41' W 017°26'0 0.0
2016-May-28 19:31N 14°41' W 017°26'0 0.0
2016-May-28 18:33N 14°41' W 017°26'4 4.2
2016-May-28 17:33N 14°38' W 017°22'8 8.1
2016-May-28 16:33N 14°36' W 017°31'2914.3
2016-May-28 14:33N 15°03' W 017°41'1616.0
2016-May-28 13:33N 15°19' W 017°41'1615.9
2016-May-28 12:33N 15°35' W 017°41'1615.9
2016-May-28 11:33N 15°51' W 017°40'1616.4
2016-May-28 10:33N 16°07' W 017°40'1716.5
2016-May-28 09:33N 16°24' W 017°40'68016.9
2016-May-26 17:16N 27°32' W 015°25'1318.4
2016-May-26 16:33N 27°44' W 015°18'1817.6
2016-May-26 15:33N 28°01' W 015°17'9 9.4
2016-May-26 14:33N 28°08' W 015°25'0 0.0
2016-May-26 13:22N 28°08' W 015°25'0 0.0
2016-May-26 12:25N 28°08' W 015°25'0 0.0
2016-May-26 11:25N 28°08' W 015°25'0 0.0
2016-May-26 10:28N 28°08' W 015°25'0 0.0
2016-May-26 09:28N 28°08' W 015°25'0 0.0
2016-May-26 08:28N 28°08' W 015°25'0 0.0
2016-May-26 07:31N 28°08' W 015°25'0 0.0
2016-May-26 06:31N 28°08' W 015°25'0 0.0
2016-May-26 05:31N 28°08' W 015°25'0 0.0
2016-May-26 04:31N 28°08' W 015°25'0 0.0
2016-May-26 03:31N 28°08' W 015°25'0 0.0
2016-May-26 02:31N 28°08' W 015°25'0 0.0
2016-May-26 01:31N 28°08' W 015°25'0 0.0
2016-May-26 00:22N 28°08' W 015°25'0 0.0
2016-May-25 23:22N 28°08' W 015°25'0 0.0
2016-May-25 22:25N 28°08' W 015°25'0 0.0
2016-May-25 21:25N 28°08' W 015°25'0 0.0
2016-May-25 20:25N 28°08' W 015°25'1 1.6
2016-May-25 19:33N 28°07' W 015°24'1110.7
2016-May-25 18:33N 28°14' W 015°15'1919.4
2016-May-25 17:33N 28°28' W 014°59'2019.8
2016-May-25 16:34N 28°42' W 014°44'2119.7
2016-May-25 15:31N 28°57' W 014°28'2019.3
2016-May-25 14:29N 29°12' W 014°12'5919.5
2016-May-25 11:29N 29°53' W 013°24'53719.2
2016-May-24 07:28N 35°57' W 005°34'1516.9
2016-May-24 06:33N 36°02' W 005°16'18818.1
2016-May-23 20:09N 36°55' W 001°31'1218.8
2016-May-23 19:30N 37°03' W 001°20'1818.9
2016-May-23 18:33N 37°14' W 001°03'1919.0
2016-May-23 17:33N 37°27' W 000°45'1818.5
2016-May-23 16:33N 37°40' W 000°29'2018.7
2016-May-23 15:30N 37°56' W 000°15'2118.4
2016-May-23 14:22N 38°14' W 000°01'6913.7
2016-May-23 09:18N 39°23' W 000°13'6 8.3
2016-May-23 08:34N 39°26' W 000°19'0 0.3
2016-May-23 07:31N 39°26' W 000°20'0 0.0
2016-May-23 04:31N 39°26' W 000°20'0 0.0
2016-May-23 03:31N 39°26' W 000°20'0 0.0
2016-May-23 02:31N 39°26' W 000°20'0 0.0
2016-May-23 01:31N 39°26' W 000°20'0 0.0
2016-May-23 00:31N 39°26' W 000°20'0 0.0
2016-May-22 23:31N 39°26' W 000°20'0 0.0
2016-May-22 22:31N 39°26' W 000°20'0 0.0
2016-May-22 21:31N 39°26' W 000°20'0 0.0
2016-May-22 20:31N 39°26' W 000°20'0 0.0
2016-May-22 19:31N 39°26' W 000°20'0 0.0
2016-May-22 18:31N 39°26' W 000°20'0 0.0
2016-May-22 17:31N 39°26' W 000°20'0 0.0
2016-May-22 16:31N 39°26' W 000°20'0 0.0
2016-May-22 15:31N 39°26' W 000°20'0 0.0
2016-May-22 14:28N 39°26' W 000°20'0 0.0
2016-May-22 13:31N 39°26' W 000°20'0 0.0
2016-May-22 12:31N 39°26' W 000°20'0 0.0
2016-May-22 10:31N 39°26' W 000°20'0 0.3
2016-May-22 09:31N 39°26' W 000°20'0 0.0
2016-May-22 08:31N 39°26' W 000°20'0 0.0
2016-May-22 07:31N 39°26' W 000°20'0 0.0
2016-May-22 06:31N 39°26' W 000°20'0 0.0
2016-May-22 05:31N 39°26' W 000°20'0 0.0
2016-May-22 04:31N 39°26' W 000°20'0 0.0
2016-May-22 03:31N 39°26' W 000°20'0 0.0
2016-May-22 02:31N 39°26' W 000°20'0 0.0
2016-May-22 01:28N 39°26' W 000°20'0 0.0
2016-May-22 00:31N 39°26' W 000°20'0 0.0
2016-May-21 23:31N 39°26' W 000°20'0 0.0
2016-May-21 22:31N 39°26' W 000°20'0 0.0
2016-May-21 21:31N 39°26' W 000°20'0 0.0
2016-May-21 20:31N 39°26' W 000°20'0 0.0
2016-May-21 19:28N 39°26' W 000°20'0 0.0
2016-May-21 18:31N 39°26' W 000°20'0 0.0
2016-May-21 17:31N 39°26' W 000°20'3 3.1
2016-May-21 16:33N 39°26' W 000°16'2 1.5
2016-May-21 15:15N 39°26' W 000°13'6 8.0
2016-May-21 14:33N 39°26' W 000°06'6 5.3
2016-May-21 13:22N 39°32' W 000°04'1 1.0
2016-May-21 12:33N 39°31' W 000°03'2 1.6
2016-May-21 11:33N 39°30' W 000°03'1 1.1
2016-May-21 10:33N 39°29' W 000°02'1 0.5
2016-May-21 09:29N 39°29' W 000°02'0 0.2
2016-May-21 08:33N 39°29' W 000°01'0 0.3
2016-May-21 07:34N 39°29' W 000°02'1 0.6
2016-May-21 06:33N 39°29' W 000°02'0 0.4
2016-May-21 05:34N 39°30' W 000°02'0 0.4
2016-May-21 04:34N 39°30' W 000°02'0 0.4
2016-May-21 03:32N 39°30' W 000°02'1 0.5
2016-May-21 02:20N 39°31' W 000°03'0 0.0
2016-May-20 23:33N 39°31' W 000°03'3 1.1
2016-May-20 21:14N 39°28' W 000°01'38 1.7
2016-May-19 23:32N 40°02' E 000°20'0 0.2
2016-May-19 22:33N 40°02' E 000°21'6 5.6
2016-May-19 21:33N 40°05' E 000°27'  

Dump ship's entire track history